Chestnut Mound, Tennessee
Current Conditions -  °F | °C
As of 7:35 PM on Wednesday 22 Oct 2014 (Local Time) from KSRB Reporting Station
Clear Clear  
Wind Chill: 11°   Ceiling: Unl
Heat Index: 11°   Visibility: 10mi
Dew Point:   Wind: 5mph
Humidity: 71%   Direction: 50°NE
Pressure: 30.2"   Gusts: NA
Location:  36.2°N, 85.83°W
Report Text: KSRB 230035Z AUTO 05004KT 10SM CLR 11/06 A3020 RMK
Loading
Personal Weather Stations






























Interactive Weather Map
Tropical Storm Tracking
New forecast layout! Learn more

10-Day Weather Forecast

Advertisements
Track Severe Weather on mobile